Погода METAR - Новосибирск (Толмачево)

Код аэропорта ICAO:
Кемерово, Абакан, Красноярск, Новосибирск
Код METAR: UNNT 052200Z 13003MPS CAVOK 01/M09 Q1014 R07/090070 R16/090070 NOSIG RMK QFE750/1001
TAF UNNT 052000Z 0521/0621 13003G08MPS CAVOK 
     BECMG 0604/0607 23005G10MPS 
     BECMG 0609/0612 9999 BKN030 
     BECMG 0615/0618 18003G08MPS
       

Погода - Сейчас

Время: 2020-04-06 05:00, местное
Направление ветра: Юго-восток (130°)
Скорость ветра: 3 м/с
Видимость: более 10км, отсутствие осадков и облаков
Температура: 1°C
Точка росы: -9°C
Атмосферное давление: 1014 гПа

Архив погоды

Время, местное Направление Скорость, м/с Температура, °C Точка росы, °C Давление, гПа
2020-04-06 05:00 ЮВ (130°) 3 1 -9 1014
2020-04-05 23:00 В (90°) 5 4 -7 1019
2020-04-05 06:00 ССВ (20°) 2 -5 -8 1031
2020-04-04 17:00 СЗ (310°) 3 7 -4 1034
2020-04-02 18:00 Ю (180°) 5 10 -3 1012
2020-04-02 05:00 ЮВ (120°) 3 0 -8 1017
2020-04-01 22:30 ЮВ (140°) 2 3 -6 1019
2020-03-30 09:00 ЮЮЗ (200°) 7 1 -4 1025
2020-03-27 07:00 Ю (170°) 5 -5 -10 1020
2020-03-26 17:00 ЮЗ (220°) 7 1 -9 1031
2020-03-26 10:00 Ю (190°) 5 -7 -10 1035
2020-03-24 12:30 СЗ (310°) 5 -10 -16 1040
2020-03-20 08:30 ЮЮЗ (200°) 8 0 -2 1009
2020-03-20 02:00 ЮЮЗ (200°) 7 -1 -3 1013
2020-03-20 00:00 ЮЮЗ (200°) 8 -1 -2 1013
2020-03-18 21:30 ЗЮЗ (240°) 5 -1 -3 1019
2020-03-18 17:00 ЗЮЗ (250°) 11 1 -2 1016
2020-03-16 03:30 Ю (180°) 6 4 -1 1008
2020-03-13 17:00 Ю (170°) 4 2 -9 1025
2020-03-11 08:30 Ю (170°) 4 -15 -17 1032
2020-03-10 16:00 З (270°) 6 -6 -12 1024
2020-03-09 03:00 Ю (190°) 7 -6 -8 1025
2020-03-07 16:00 ЮЗ (210°) 5 -14 -21 1039
2020-03-06 12:30 З (270°) 4 -12 -16 1022
2020-03-01 22:00 ЮВ (140°) 3 -2 -4 1027
2020-03-01 08:30 ЮВ (140°) 3 -2 -4 1031
2020-02-29 10:00 ЮЮЗ (200°) 6 0 -1 1026
2020-02-29 06:00 ЮЮЗ (200°) 4 -1 -2 1025
2020-02-28 16:30 ЗЮЗ (240°) 8 -1 -5 1022
2020-02-24 05:00 Переменный 1 0 0
2020-02-22 22:00 Переменный 1 -4 -6 1021
2020-02-22 04:00 ЗЮЗ (240°) 3 -6 -7 1017
2020-02-20 16:30 ЮЮЗ (200°) 6 -2 -4 1021
2020-02-19 01:00 Ю (190°) 7 -8 -11 1022
2020-02-18 08:00 Ю (170°) 4 -8 -11 1026
2020-02-17 05:00 ЮЮВ (150°) 6 -6 -9 1030
2020-02-15 21:30 Переменный 1 0 450
2020-02-15 14:30 Переменный 1 -6 -8 1035
2020-02-14 14:00 Ю (190°) 4 -5 -10 1034
2020-02-11 17:00 ЮЮВ (160°) 3 -15 -19 1027
2020-02-11 13:00 ЮЮВ (150°) 3 -20 -22 1025
2020-02-10 15:00 З (280°) 4 -15 -19 1014
2020-02-10 04:00 С (350°) 7 -8 -10 999
2020-02-07 13:30 ЮЮЗ (200°) 7 -3 -5 1018
2020-02-07 08:30 Ю (190°) 7 -5 -7 1018
2020-02-06 21:30 ЮЗ (210°) 8 0 -2 1011
2020-02-05 19:30 ЮЮВ (160°) 5 -1 -4 1021
2020-02-05 10:00 Ю (190°) 4 -6 -8 1021